Аэропорт: Аулие-Ата. Тараз

ICAO: UADD

METAR:
2018/11/21 18:00
UADD 211800Z 20004MPS 160V220 9999 NSC 02/01 Q1009 R13/19//60 NOSIG RMK QFE700/0934
METAR:
2018/11/10 00:06
TAF TAF UADD 092300Z 0900/1009 22005G10MPS 3000 BR SCT040 OVC100